Main page
METAR-TAF:

METAR-TAF

Airports :

Exeter Airport

Exeter, England

latitude: 50-44N, longitude: 003-25W, elevation: 30 m

Current weather observation

The report was made 26 minutes ago, at 21:50 UTC
Wind 2 kt from variable directions
Temperature 2°C
Humidity 93%
Pressure 999 hPa
Visibility 10 km or more
Few clouds at a height of 2000 ft

METAR: EGTE 222150Z VRB02KT 9999 FEW020 02/01 Q0999

Time: 22:16 (22:16 UTC)

Forecast

The report was made 2 hours and 12 minutes ago, at 20:04 UTC
Forecast valid from 22 at 21 UTC to 23 at 06 UTC
Wind 9 kt from the West/Northwest
Visibility 10 km or more
Scattered clouds at a height of 2500 ft
Temporary
from 22 at 21 UTC to 23 at 06 UTC
Visibility: 6000 m
Broken clouds at a height of 1200 ft
rain showers

TAF: EGTE 222004Z 2221/2306 29009KT 9999 SCT025 TEMPO 2221/2306 6000 SHRA BKN012

Weather observations and forecasts of more than 4000 airports (METAR and TAF reports).

The available stations are represented by yellow and red dots on the map.

Hover mouse over dot to see the name of the station.

Then click to see weather observations and forecasts.

To change the map : click on the green buttons with a black cross to zoom in, on the green button with a dash to zoom out, or on the green arrows for adjacent maps.


METAR-TAF: